createdAt,value
2022-07-28T00:01:29.380Z,3.00
2022-07-28T00:03:31.286Z,4.35
2022-07-28T00:05:33.230Z,4.40
2022-07-28T00:07:36.308Z,2.50
2022-07-28T00:09:38.567Z,2.33
2022-07-28T00:11:50.429Z,3.45
2022-07-28T00:13:56.653Z,4.88
2022-07-28T00:15:58.885Z,3.28
2022-07-28T00:18:01.132Z,4.90
2022-07-28T00:20:05.113Z,2.78
2022-07-28T00:22:07.535Z,3.13
2022-07-28T00:24:09.735Z,2.97
2022-07-28T00:26:12.588Z,3.63
2022-07-28T00:28:14.416Z,2.80
2022-07-28T00:30:16.196Z,2.83
2022-07-28T00:32:21.665Z,2.72
2022-07-28T00:34:26.580Z,3.22
2022-07-28T00:36:29.074Z,3.40
2022-07-28T00:38:30.943Z,2.95
2022-07-28T00:40:51.411Z,2.92
2022-07-28T00:42:53.088Z,5.03
2022-07-28T00:44:55.043Z,5.45
2022-07-28T00:46:56.808Z,3.35
2022-07-28T00:48:59.276Z,3.28
2022-07-28T00:51:01.216Z,5.03
2022-07-28T00:53:03.126Z,4.00
2022-07-28T00:55:07.124Z,3.95
2022-07-28T00:57:09.457Z,3.50
2022-07-28T00:59:11.400Z,4.28
2022-07-28T01:01:19.922Z,5.10
2022-07-28T01:03:22.990Z,4.90
2022-07-28T01:05:43.906Z,6.13
2022-07-28T01:07:55.460Z,4.07
2022-07-28T01:10:13.881Z,4.25
2022-07-28T01:12:34.891Z,4.25
2022-07-28T01:14:44.854Z,4.43
2022-07-28T01:16:56.870Z,4.00
2022-07-28T01:19:10.221Z,3.15
2022-07-28T01:21:15.836Z,3.42
2022-07-28T01:23:32.822Z,3.92
2022-07-28T01:25:49.936Z,4.00
2022-07-28T01:27:59.210Z,4.03
2022-07-28T01:30:29.630Z,3.22
2022-07-28T01:32:39.520Z,3.80
2022-07-28T01:34:49.562Z,3.65
2022-07-28T01:36:59.716Z,2.70
2022-07-28T01:39:02.437Z,3.17
2022-07-28T01:41:07.714Z,2.72
2022-07-28T01:43:14.438Z,3.88
2022-07-28T01:45:19.147Z,5.05
2022-07-28T01:47:22.434Z,2.67
2022-07-28T01:49:26.622Z,3.53
2022-07-28T01:51:30.558Z,4.30
2022-07-28T01:53:37.742Z,2.60
2022-07-28T01:55:43.366Z,2.83
2022-07-28T01:57:47.522Z,4.43
2022-07-28T01:59:51.194Z,5.13
2022-07-28T02:01:54.739Z,4.38
2022-07-28T02:04:00.378Z,5.55
2022-07-28T02:06:04.877Z,2.95
2022-07-28T02:08:07.862Z,5.97
2022-07-28T02:10:12.709Z,3.20
2022-07-28T02:12:18.554Z,3.10
2022-07-28T02:14:23.260Z,2.90
2022-07-28T02:16:27.622Z,4.07
2022-07-28T02:18:31.371Z,3.25
2022-07-28T02:20:33.985Z,2.60
2022-07-28T02:22:37.959Z,3.00
2022-07-28T02:24:43.380Z,3.22
2022-07-28T02:26:53.673Z,4.22
2022-07-28T02:28:59.699Z,3.10
2022-07-28T02:31:20.202Z,3.55
2022-07-28T02:33:58.133Z,3.38
2022-07-28T02:35:57.528Z,3.35
2022-07-28T02:38:05.338Z,4.55
2022-07-28T02:40:13.847Z,3.40
2022-07-28T02:42:19.888Z,4.35
2022-07-28T02:44:26.706Z,3.13
2022-07-28T02:46:43.194Z,2.65
2022-07-28T02:48:50.056Z,4.05
2022-07-28T02:50:54.874Z,3.30
2022-07-28T02:52:59.921Z,3.95
2022-07-28T02:55:03.442Z,5.03
2022-07-28T02:57:06.860Z,5.95
2022-07-28T02:59:11.553Z,4.95
2022-07-28T03:01:20.650Z,2.78
2022-07-28T03:03:23.277Z,4.85
2022-07-28T03:05:26.306Z,4.07
2022-07-28T03:07:29.822Z,4.10
2022-07-28T03:09:38.027Z,3.30
2022-07-28T03:11:53.243Z,5.72
2022-07-28T03:13:55.229Z,7.28
2022-07-28T03:15:57.145Z,3.75
2022-07-28T03:18:00.483Z,3.95
2022-07-28T03:20:02.356Z,5.47
2022-07-28T03:22:05.336Z,3.67
2022-07-28T03:24:10.669Z,5.72
2022-07-28T03:26:30.716Z,5.63
2022-07-28T03:28:33.914Z,3.30
2022-07-28T03:30:41.906Z,4.95
2022-07-28T03:32:48.330Z,5.47
2022-07-28T03:34:52.512Z,5.25
2022-07-28T03:37:03.010Z,5.45
2022-07-28T03:39:09.411Z,6.60
2022-07-28T03:41:13.297Z,7.88
2022-07-28T03:43:18.981Z,3.95
2022-07-28T03:45:21.573Z,3.83
2022-07-28T03:47:24.260Z,4.05
2022-07-28T03:49:26.150Z,3.97
2022-07-28T03:51:29.627Z,8.00
2022-07-28T03:53:31.483Z,5.18
2022-07-28T03:55:33.313Z,6.85
2022-07-28T03:57:35.689Z,4.43
2022-07-28T03:59:37.629Z,4.47
2022-07-28T04:01:40.405Z,4.85
2022-07-28T04:03:43.673Z,5.78
2022-07-28T04:05:46.916Z,6.55
2022-07-28T04:07:48.780Z,3.40
2022-07-28T04:09:50.863Z,3.40
2022-07-28T04:11:52.687Z,9.25
2022-07-28T04:13:56.289Z,4.32
2022-07-28T04:15:58.738Z,6.97
2022-07-28T04:18:00.950Z,8.75
2022-07-28T04:20:02.795Z,5.43
2022-07-28T04:22:04.611Z,5.45
2022-07-28T04:24:08.926Z,7.50
2022-07-28T04:26:11.190Z,4.72
2022-07-28T04:28:13.020Z,4.85
2022-07-28T04:30:17.542Z,6.63
2022-07-28T04:32:19.481Z,4.95
2022-07-28T04:34:21.324Z,5.28
2022-07-28T04:36:23.098Z,6.18
2022-07-28T04:38:24.898Z,8.25
2022-07-28T04:40:27.991Z,23.05
2022-07-28T04:42:29.722Z,26.88
2022-07-28T04:44:31.505Z,33.42
2022-07-28T04:46:34.817Z,21.58
2022-07-28T04:48:36.732Z,14.60
2022-07-28T04:50:40.993Z,14.57
2022-07-28T04:52:42.791Z,8.75
2022-07-28T04:54:44.595Z,9.60
2022-07-28T04:56:46.623Z,6.75
2022-07-28T04:58:48.393Z,5.93
2022-07-28T05:00:51.174Z,6.68
2022-07-28T05:02:53.795Z,4.32
2022-07-28T05:04:55.761Z,6.07
2022-07-28T05:06:57.553Z,4.05
2022-07-28T05:08:59.306Z,5.15
2022-07-28T05:11:01.574Z,5.97
2022-07-28T05:13:07.437Z,5.35
2022-07-28T05:15:09.725Z,4.53
2022-07-28T05:17:11.619Z,5.35
2022-07-28T05:19:15.375Z,3.97
2022-07-28T05:21:17.094Z,4.05
2022-07-28T05:23:25.140Z,3.92
2022-07-28T05:25:27.054Z,7.88
2022-07-28T05:27:28.850Z,8.50
2022-07-28T05:29:35.127Z,5.00
2022-07-28T05:31:48.966Z,6.32
2022-07-28T05:33:51.402Z,9.63
2022-07-28T05:35:57.524Z,8.38
2022-07-28T05:37:59.395Z,8.52
2022-07-28T05:40:03.710Z,4.22
2022-07-28T05:42:05.726Z,3.95
2022-07-28T05:44:07.495Z,4.75
2022-07-28T05:46:09.413Z,4.63
2022-07-28T05:48:11.622Z,3.55
2022-07-28T05:50:15.239Z,4.78
2022-07-28T05:52:16.951Z,3.72
2022-07-28T05:54:18.712Z,3.55
2022-07-28T05:56:22.076Z,3.35
2022-07-28T05:58:24.168Z,4.65
2022-07-28T06:00:27.248Z,3.85
2022-07-28T06:02:29.052Z,2.90
2022-07-28T06:04:31.593Z,3.72
2022-07-28T06:06:33.560Z,4.88
2022-07-28T06:08:36.325Z,3.25
2022-07-28T06:10:57.135Z,2.95
2022-07-28T06:12:58.952Z,3.53
2022-07-28T06:15:04.199Z,3.10
2022-07-28T06:17:06.109Z,4.75
2022-07-28T06:19:07.935Z,3.08
2022-07-28T06:21:09.712Z,6.43
2022-07-28T06:23:12.047Z,4.30
2022-07-28T06:25:24.261Z,3.30
2022-07-28T06:27:26.116Z,4.70
2022-07-28T06:29:27.927Z,3.17
2022-07-28T06:31:29.838Z,4.95
2022-07-28T06:33:32.129Z,3.53
2022-07-28T06:35:44.966Z,4.85
2022-07-28T06:37:53.880Z,2.90
2022-07-28T06:39:56.900Z,3.25
2022-07-28T06:41:58.757Z,4.20
2022-07-28T06:44:00.817Z,2.90
2022-07-28T06:46:03.624Z,5.43
2022-07-28T06:48:07.967Z,3.70
2022-07-28T06:50:26.373Z,3.20
2022-07-28T06:52:28.970Z,3.30
2022-07-28T06:54:30.700Z,3.30
2022-07-28T06:56:32.567Z,3.45
2022-07-28T06:58:34.466Z,3.28
2022-07-28T07:00:36.403Z,4.03
2022-07-28T07:02:40.144Z,4.82
2022-07-28T07:04:42.633Z,4.07
2022-07-28T07:06:44.730Z,6.40
2022-07-28T07:08:47.883Z,5.25
2022-07-28T07:10:49.986Z,7.13
2022-07-28T07:12:52.253Z,5.22
2022-07-28T07:14:54.206Z,4.70
2022-07-28T07:16:55.982Z,4.18
2022-07-28T07:18:57.902Z,4.65
2022-07-28T07:20:59.778Z,5.38
2022-07-28T07:23:01.903Z,4.47
2022-07-28T07:25:18.216Z,4.85
2022-07-28T07:27:19.968Z,2.92
2022-07-28T07:29:23.022Z,4.55
2022-07-28T07:31:24.841Z,4.45
2022-07-28T07:33:26.667Z,4.82
2022-07-28T07:35:28.582Z,3.72
2022-07-28T07:37:32.557Z,3.15
2022-07-28T07:39:34.474Z,3.53
2022-07-28T07:41:36.290Z,3.05
2022-07-28T07:43:43.372Z,3.88
2022-07-28T07:45:47.721Z,5.60
2022-07-28T07:47:49.568Z,3.50
2022-07-28T07:49:51.914Z,5.55
2022-07-28T07:51:53.753Z,3.40
2022-07-28T07:53:55.482Z,3.58
2022-07-28T07:55:57.898Z,3.95
2022-07-28T07:57:59.680Z,3.88
2022-07-28T08:00:01.769Z,3.20
2022-07-28T08:02:06.422Z,3.38
2022-07-28T08:04:08.484Z,4.40
2022-07-28T08:06:10.869Z,3.70
2022-07-28T08:08:13.760Z,3.50
2022-07-28T08:10:15.613Z,3.67
2022-07-28T08:12:17.512Z,3.05
2022-07-28T08:14:26.601Z,3.00
2022-07-28T08:16:28.607Z,4.82
2022-07-28T08:18:30.466Z,3.70
2022-07-28T08:20:32.916Z,2.97
2022-07-28T08:22:34.652Z,2.78
2022-07-28T08:24:36.687Z,5.10
2022-07-28T08:26:38.595Z,5.03
2022-07-28T08:28:40.340Z,3.10
2022-07-28T08:30:42.504Z,3.00
2022-07-28T08:32:44.275Z,4.75
2022-07-28T08:35:22.654Z,3.45
2022-07-28T08:37:20.276Z,4.10
2022-07-28T08:39:22.880Z,3.70
2022-07-28T08:41:36.814Z,4.38
2022-07-28T08:43:42.823Z,4.30
2022-07-28T08:45:49.631Z,3.20
2022-07-28T08:48:08.196Z,4.75
2022-07-28T08:50:13.733Z,3.58
2022-07-28T08:52:19.830Z,3.38
2022-07-28T08:54:27.154Z,2.97
2022-07-28T08:56:29.129Z,2.65
2022-07-28T08:58:35.838Z,6.55
2022-07-28T09:00:38.093Z,3.75
2022-07-28T09:02:45.854Z,3.45
2022-07-28T09:04:48.310Z,2.67
2022-07-28T09:06:50.112Z,5.10
2022-07-28T09:08:52.309Z,3.03
2022-07-28T09:10:54.518Z,4.45
2022-07-28T09:12:56.361Z,4.85
2022-07-28T09:14:58.164Z,3.28
2022-07-28T09:17:01.891Z,3.05
2022-07-28T09:19:03.772Z,5.90
2022-07-28T09:21:05.552Z,4.57
2022-07-28T09:23:41.912Z,5.93
2022-07-28T09:25:31.581Z,3.67
2022-07-28T09:27:46.733Z,3.30
2022-07-28T09:29:59.012Z,4.13
2022-07-28T09:32:01.176Z,5.38
2022-07-28T09:34:05.257Z,4.18
2022-07-28T09:36:14.706Z,4.05
2022-07-28T09:38:18.875Z,3.38
2022-07-28T09:40:22.510Z,4.43
2022-07-28T09:42:25.141Z,4.97
2022-07-28T09:44:27.957Z,5.20
2022-07-28T09:46:30.692Z,6.82
2022-07-28T09:48:33.402Z,5.05
2022-07-28T09:50:35.658Z,4.05
2022-07-28T09:52:38.616Z,3.72
2022-07-28T09:54:59.595Z,4.18
2022-07-28T09:57:01.622Z,7.97
2022-07-28T09:59:03.955Z,5.95
2022-07-28T10:01:11.596Z,5.22
2022-07-28T10:03:26.006Z,4.85
2022-07-28T10:05:40.583Z,6.53
2022-07-28T10:07:51.413Z,4.53
2022-07-28T10:09:57.673Z,3.90
2022-07-28T10:12:19.560Z,3.25
2022-07-28T10:14:32.612Z,2.85
2022-07-28T10:16:37.037Z,6.47
2022-07-28T10:18:40.637Z,4.43
2022-07-28T10:20:44.990Z,3.03
2022-07-28T10:22:46.982Z,3.10
2022-07-28T10:24:53.015Z,6.70
2022-07-28T10:26:57.201Z,3.83
2022-07-28T10:29:04.038Z,4.00
2022-07-28T10:31:11.801Z,4.28
2022-07-28T10:33:15.797Z,3.42
2022-07-28T10:35:18.086Z,3.78
2022-07-28T10:37:25.813Z,4.05
2022-07-28T10:39:33.056Z,3.15
2022-07-28T10:41:40.570Z,3.20
2022-07-28T10:43:45.512Z,6.68
2022-07-28T10:46:05.120Z,6.82
2022-07-28T10:48:08.554Z,3.17
2022-07-28T10:50:10.679Z,3.03
2022-07-28T10:52:45.866Z,3.50
2022-07-28T10:55:05.341Z,4.05
2022-07-28T10:57:10.951Z,3.38
2022-07-28T10:59:29.547Z,3.95
2022-07-28T11:01:49.228Z,3.95
2022-07-28T11:03:52.118Z,3.38
2022-07-28T11:05:54.449Z,3.92
2022-07-28T11:08:01.284Z,4.57
2022-07-28T11:10:16.943Z,3.72
2022-07-28T11:12:45.410Z,3.03
2022-07-28T11:14:47.437Z,2.95
2022-07-28T11:17:01.625Z,3.20
2022-07-28T11:19:07.913Z,3.35
2022-07-28T11:21:30.968Z,4.35
2022-07-28T11:23:47.646Z,3.42
2022-07-28T11:26:24.747Z,3.20
2022-07-28T11:28:26.644Z,3.92
2022-07-28T11:30:32.225Z,4.28
2022-07-28T11:32:55.554Z,5.45
2022-07-28T11:35:10.178Z,2.67
2022-07-28T11:37:15.081Z,4.28
2022-07-28T11:39:27.760Z,3.33
2022-07-28T11:41:34.704Z,3.30
2022-07-28T11:43:39.507Z,2.95
2022-07-28T11:45:47.290Z,3.22
2022-07-28T11:48:19.082Z,2.80
2022-07-28T11:50:21.101Z,2.55
2022-07-28T11:52:22.973Z,3.38
2022-07-28T11:54:25.392Z,5.53
2022-07-28T11:56:31.856Z,2.60
2022-07-28T11:58:34.198Z,3.17
2022-07-28T12:00:35.995Z,2.90
2022-07-28T12:02:41.001Z,2.42
2022-07-28T12:04:43.223Z,4.03
2022-07-28T12:06:51.562Z,2.60
2022-07-28T12:08:56.762Z,2.80
2022-07-28T12:10:58.819Z,3.38
2022-07-28T12:13:05.545Z,3.22
2022-07-28T12:15:08.192Z,2.70
2022-07-28T12:17:10.659Z,3.33
2022-07-28T12:19:16.701Z,2.42
2022-07-28T12:21:55.587Z,3.83
2022-07-28T12:23:57.455Z,4.35
2022-07-28T12:26:04.666Z,5.35
2022-07-28T12:28:20.194Z,3.15
2022-07-28T12:30:27.365Z,2.55
2022-07-28T12:32:36.402Z,2.85
2022-07-28T12:34:40.594Z,3.80
2022-07-28T12:36:42.807Z,5.88
2022-07-28T12:38:46.020Z,2.75
2022-07-28T12:40:48.191Z,2.75
2022-07-28T12:42:54.135Z,2.60
2022-07-28T12:45:04.762Z,4.57
2022-07-28T12:47:09.130Z,7.53
2022-07-28T12:49:21.642Z,4.70
2022-07-28T12:51:35.409Z,7.30
2022-07-28T12:53:51.192Z,6.07
2022-07-28T12:56:02.287Z,4.90
2022-07-28T12:58:05.092Z,4.22
2022-07-28T13:00:07.551Z,5.47
2022-07-28T13:02:09.555Z,4.90
2022-07-28T13:04:11.855Z,4.47
2022-07-28T13:06:15.706Z,4.45
2022-07-28T13:08:17.618Z,4.53
2022-07-28T13:10:22.517Z,4.55
2022-07-28T13:12:25.397Z,2.72
2022-07-28T13:14:44.608Z,4.15
2022-07-28T13:16:57.617Z,4.03
2022-07-28T13:19:05.716Z,3.25
2022-07-28T13:21:08.660Z,5.18
2022-07-28T13:23:10.356Z,2.55
2022-07-28T13:25:12.259Z,3.15
2022-07-28T13:27:14.279Z,3.97
2022-07-28T13:29:16.141Z,2.97
2022-07-28T13:31:18.138Z,3.42
2022-07-28T13:33:20.598Z,3.13
2022-07-28T13:35:23.214Z,4.53
2022-07-28T13:37:25.344Z,3.25
2022-07-28T13:39:27.618Z,3.08
2022-07-28T13:41:56.664Z,5.05
2022-07-28T13:43:51.320Z,4.00
2022-07-28T13:45:57.092Z,4.38
2022-07-28T13:48:03.553Z,3.42
2022-07-28T13:50:06.288Z,3.67
2022-07-28T13:52:12.886Z,4.13
2022-07-28T13:54:15.876Z,4.80
2022-07-28T13:56:17.956Z,3.38
2022-07-28T13:58:19.745Z,4.05
2022-07-28T14:00:25.259Z,3.13
2022-07-28T14:02:27.609Z,3.75
2022-07-28T14:04:29.503Z,4.60
2022-07-28T14:06:31.397Z,5.57
2022-07-28T14:08:33.281Z,2.92
2022-07-28T14:10:38.598Z,3.72
2022-07-28T14:12:40.535Z,3.38
2022-07-28T14:14:48.525Z,6.07
2022-07-28T14:16:52.143Z,3.67
2022-07-28T14:18:54.213Z,5.95
2022-07-28T14:20:56.074Z,3.10
2022-07-28T14:23:00.621Z,4.32
2022-07-28T14:25:02.500Z,5.25
2022-07-28T14:27:04.387Z,2.95
2022-07-28T14:29:11.498Z,5.43
2022-07-28T14:31:13.626Z,3.65
2022-07-28T14:33:16.513Z,3.65
2022-07-28T14:35:19.505Z,3.33
2022-07-28T14:37:21.376Z,3.33
2022-07-28T14:39:23.156Z,3.42
2022-07-28T14:41:26.080Z,3.30
2022-07-28T14:43:27.867Z,3.10
2022-07-28T14:45:29.925Z,2.92
2022-07-28T14:47:45.284Z,5.93
2022-07-28T14:49:57.951Z,3.17
2022-07-28T14:52:00.395Z,5.13
2022-07-28T14:54:02.662Z,3.30
2022-07-28T14:56:04.736Z,4.35
2022-07-28T14:58:06.574Z,3.72
2022-07-28T15:00:14.050Z,4.60
2022-07-28T15:02:16.338Z,3.20
2022-07-28T15:04:18.936Z,3.30
2022-07-28T15:06:20.902Z,2.97
2022-07-28T15:08:27.967Z,3.13
2022-07-28T15:10:31.358Z,3.35
2022-07-28T15:12:33.107Z,5.15
2022-07-28T15:14:35.279Z,7.75
2022-07-28T15:16:38.408Z,3.88
2022-07-28T15:18:41.958Z,4.70
2022-07-28T15:20:43.799Z,6.90
2022-07-28T15:22:46.098Z,6.35
2022-07-28T15:24:47.894Z,4.43
2022-07-28T15:26:49.817Z,3.92
2022-07-28T15:28:51.659Z,3.20
2022-07-28T15:30:54.619Z,3.08
2022-07-28T15:32:58.002Z,6.28
2022-07-28T15:35:01.909Z,2.85
2022-07-28T15:37:03.706Z,3.20
2022-07-28T15:39:08.990Z,2.85
2022-07-28T15:41:13.056Z,2.78
2022-07-28T15:43:14.862Z,3.40
2022-07-28T15:45:16.820Z,4.05
2022-07-28T15:47:18.607Z,3.55
2022-07-28T15:49:20.465Z,2.72
2022-07-28T15:51:25.770Z,3.65
2022-07-28T15:53:28.295Z,2.42
2022-07-28T15:55:30.079Z,3.65
2022-07-28T15:57:37.920Z,2.60
2022-07-28T15:59:49.414Z,2.67
2022-07-28T16:01:52.385Z,2.53
2022-07-28T16:03:55.146Z,2.65
2022-07-28T16:05:58.911Z,3.10
2022-07-28T16:08:00.871Z,2.80
2022-07-28T16:10:03.207Z,4.10
2022-07-28T16:12:05.742Z,4.60
2022-07-28T16:14:07.593Z,4.68
2022-07-28T16:16:11.469Z,3.53
2022-07-28T16:18:14.481Z,3.45
2022-07-28T16:20:17.781Z,4.78
2022-07-28T16:22:20.969Z,4.50
2022-07-28T16:24:22.840Z,5.25
2022-07-28T16:26:24.655Z,3.55
2022-07-28T16:28:29.136Z,3.53
2022-07-28T16:30:31.052Z,3.28
2022-07-28T16:32:33.012Z,2.78
2022-07-28T16:34:34.927Z,3.00
2022-07-28T16:36:38.201Z,3.92
2022-07-28T16:38:39.946Z,4.68
2022-07-28T16:40:41.901Z,4.07
2022-07-28T16:42:44.091Z,3.08
2022-07-28T16:44:47.503Z,3.42
2022-07-28T16:46:50.093Z,3.17
2022-07-28T16:48:52.149Z,3.53
2022-07-28T16:50:54.065Z,3.90
2022-07-28T16:52:56.684Z,3.72
2022-07-28T16:54:58.584Z,4.05
2022-07-28T16:57:00.802Z,4.13
2022-07-28T16:59:02.950Z,3.10
2022-07-28T17:01:05.430Z,3.33
2022-07-28T17:03:07.387Z,6.80
2022-07-28T17:05:13.824Z,4.00
2022-07-28T17:07:15.707Z,3.00
2022-07-28T17:09:17.562Z,2.92
2022-07-28T17:11:19.372Z,3.03
2022-07-28T17:13:22.511Z,3.00
2022-07-28T17:15:24.797Z,2.80
2022-07-28T17:17:27.028Z,2.92
2022-07-28T17:19:33.117Z,2.70
2022-07-28T17:21:36.037Z,3.10
2022-07-28T17:23:39.170Z,2.85
2022-07-28T17:26:04.920Z,4.22
2022-07-28T17:28:04.439Z,3.13
2022-07-28T17:30:07.680Z,5.28
2022-07-28T17:32:10.260Z,2.80
2022-07-28T17:34:12.366Z,2.60
2022-07-28T17:36:14.817Z,2.83
2022-07-28T17:38:21.490Z,3.75
2022-07-28T17:40:27.514Z,3.45
2022-07-28T17:42:29.770Z,9.10
2022-07-28T17:44:31.475Z,4.55
2022-07-28T17:46:37.904Z,4.88
2022-07-28T17:48:40.436Z,7.75
2022-07-28T17:50:43.431Z,5.05
2022-07-28T17:52:46.730Z,2.88
2022-07-28T17:55:07.023Z,4.00
2022-07-28T17:57:09.541Z,2.85
2022-07-28T17:59:13.022Z,2.90
2022-07-28T18:01:15.410Z,4.72
2022-07-28T18:03:18.364Z,3.20
2022-07-28T18:05:20.392Z,4.68
2022-07-28T18:07:22.284Z,3.28
2022-07-28T18:09:24.062Z,5.65
2022-07-28T18:11:27.765Z,4.32
2022-07-28T18:13:29.901Z,5.53
2022-07-28T18:15:32.298Z,4.60
2022-07-28T18:17:34.129Z,4.10
2022-07-28T18:19:35.945Z,4.20
2022-07-28T18:21:37.800Z,3.75
2022-07-28T18:23:44.988Z,3.00
2022-07-28T18:25:47.416Z,3.25
2022-07-28T18:27:49.365Z,3.92
2022-07-28T18:29:51.182Z,3.83
2022-07-28T18:31:53.372Z,2.90
2022-07-28T18:33:55.495Z,5.93
2022-07-28T18:35:57.608Z,3.17
2022-07-28T18:38:00.428Z,3.50
2022-07-28T18:40:04.118Z,4.35
2022-07-28T18:42:06.289Z,2.78
2022-07-28T18:44:08.084Z,3.22
2022-07-28T18:46:09.876Z,4.55
2022-07-28T18:48:11.878Z,2.92
2022-07-28T18:50:28.103Z,4.22
2022-07-28T18:52:35.156Z,2.70
2022-07-28T18:54:38.138Z,3.33
2022-07-28T18:56:39.890Z,2.95
2022-07-28T18:58:42.389Z,7.13
2022-07-28T19:00:45.051Z,4.22
2022-07-28T19:02:47.488Z,2.90
2022-07-28T19:04:49.297Z,3.50
2022-07-28T19:06:51.309Z,3.85
2022-07-28T19:08:53.117Z,5.07
2022-07-28T19:10:55.517Z,3.58
2022-07-28T19:12:57.694Z,3.70
2022-07-28T19:14:59.895Z,4.03
2022-07-28T19:17:04.003Z,5.22
2022-07-28T19:19:05.802Z,3.78
2022-07-28T19:21:08.983Z,8.23
2022-07-28T19:23:11.069Z,3.65
2022-07-28T19:25:12.901Z,5.07
2022-07-28T19:27:14.982Z,4.05
2022-07-28T19:29:16.786Z,5.25
2022-07-28T19:31:20.404Z,6.28
2022-07-28T19:33:22.230Z,5.43
2022-07-28T19:35:26.386Z,4.30
2022-07-28T19:37:28.331Z,5.10
2022-07-28T19:39:34.120Z,3.78
2022-07-28T19:41:36.005Z,3.60
2022-07-28T19:43:38.240Z,4.70
2022-07-28T19:45:40.310Z,3.60
2022-07-28T19:47:42.698Z,3.85
2022-07-28T19:49:44.610Z,4.20
2022-07-28T19:51:46.385Z,5.03
2022-07-28T19:53:48.576Z,5.05
2022-07-28T19:55:51.375Z,5.20
2022-07-28T19:57:59.096Z,3.90
2022-07-28T20:00:04.679Z,5.03
2022-07-28T20:02:14.334Z,3.38
2022-07-28T20:04:16.678Z,6.18
2022-07-28T20:06:18.700Z,3.97
2022-07-28T20:08:26.962Z,5.25
2022-07-28T20:10:28.885Z,4.97
2022-07-28T20:12:36.190Z,4.55
2022-07-28T20:14:38.729Z,4.10
2022-07-28T20:16:40.573Z,5.18
2022-07-28T20:18:42.608Z,8.07
2022-07-28T20:20:44.328Z,3.78
2022-07-28T20:22:47.671Z,6.95
2022-07-28T20:24:49.801Z,5.47
2022-07-28T20:26:51.751Z,3.45
2022-07-28T20:28:58.515Z,3.17
2022-07-28T20:31:00.504Z,3.65
2022-07-28T20:33:02.340Z,5.00
2022-07-28T20:35:08.713Z,6.28
2022-07-28T20:37:31.346Z,3.30
2022-07-28T20:39:44.515Z,4.90
2022-07-28T20:41:48.717Z,4.53
2022-07-28T20:44:11.392Z,3.42
2022-07-28T20:46:12.475Z,6.13
2022-07-28T20:48:14.491Z,3.85
2022-07-28T20:50:17.728Z,3.47
2022-07-28T20:52:19.447Z,5.05
2022-07-28T20:54:22.320Z,4.40
2022-07-28T20:56:24.179Z,5.47
2022-07-28T20:58:26.642Z,3.92
2022-07-28T21:00:28.879Z,3.80
2022-07-28T21:02:30.882Z,3.90
2022-07-28T21:04:32.779Z,3.30
2022-07-28T21:06:35.170Z,5.15
2022-07-28T21:08:39.721Z,3.67
2022-07-28T21:10:44.257Z,4.07
2022-07-28T21:12:46.087Z,3.95
2022-07-28T21:14:48.581Z,6.03
2022-07-28T21:16:51.304Z,6.13
2022-07-28T21:18:53.197Z,3.75
2022-07-28T21:20:55.223Z,3.90
2022-07-28T21:22:57.019Z,6.97
2022-07-28T21:24:59.246Z,4.18
2022-07-28T21:27:01.009Z,4.65
2022-07-28T21:29:12.642Z,7.40
2022-07-28T21:31:14.651Z,4.93
2022-07-28T21:33:22.272Z,5.70
2022-07-28T21:35:25.513Z,4.18
2022-07-28T21:37:27.341Z,7.60
2022-07-28T21:39:29.369Z,4.35
2022-07-28T21:41:36.874Z,6.53
2022-07-28T21:43:39.255Z,4.20
2022-07-28T21:45:41.101Z,3.92
2022-07-28T21:47:43.049Z,3.72
2022-07-28T21:49:44.805Z,3.88
2022-07-28T21:51:47.019Z,5.20
2022-07-28T21:53:50.591Z,4.10
2022-07-28T21:55:57.108Z,8.60
2022-07-28T21:57:59.205Z,8.20
2022-07-28T22:00:01.647Z,4.07
2022-07-28T22:02:03.941Z,7.13
2022-07-28T22:04:05.708Z,6.30
2022-07-28T22:06:07.956Z,4.53
2022-07-28T22:08:09.787Z,6.60
2022-07-28T22:10:12.149Z,3.88
2022-07-28T22:12:14.595Z,4.40
2022-07-28T22:14:17.032Z,4.32
2022-07-28T22:16:19.416Z,4.85
2022-07-28T22:18:21.461Z,5.28
2022-07-28T22:20:23.414Z,4.95
2022-07-28T22:22:25.419Z,5.43
2022-07-28T22:24:27.194Z,4.32
2022-07-28T22:26:29.414Z,4.50
2022-07-28T22:28:31.281Z,3.63
2022-07-28T22:30:33.542Z,6.10
2022-07-28T22:32:35.420Z,3.58
2022-07-28T22:34:37.457Z,4.43
2022-07-28T22:36:39.525Z,5.65
2022-07-28T22:38:41.385Z,4.47
2022-07-28T22:40:43.227Z,4.78
2022-07-28T22:42:45.710Z,3.35
2022-07-28T22:44:47.535Z,5.82
2022-07-28T22:46:49.622Z,3.83
2022-07-28T22:48:51.567Z,3.88
2022-07-28T22:50:53.403Z,3.40
2022-07-28T22:52:55.168Z,5.65
2022-07-28T22:54:57.417Z,5.65
2022-07-28T22:56:59.606Z,4.03
2022-07-28T22:59:01.368Z,4.70
2022-07-28T23:01:03.949Z,3.58
2022-07-28T23:03:09.980Z,4.55
2022-07-28T23:05:16.327Z,4.38
2022-07-28T23:07:18.156Z,4.38
2022-07-28T23:09:20.163Z,4.72
2022-07-28T23:11:21.944Z,4.50
2022-07-28T23:13:24.131Z,4.55
2022-07-28T23:15:41.134Z,4.85
2022-07-28T23:17:43.511Z,5.35
2022-07-28T23:19:45.277Z,4.55
2022-07-28T23:21:47.179Z,4.95
2022-07-28T23:23:49.496Z,3.97
2022-07-28T23:25:51.390Z,3.95
2022-07-28T23:27:53.240Z,4.18
2022-07-28T23:29:55.117Z,4.13
2022-07-28T23:31:56.908Z,3.92
2022-07-28T23:33:58.874Z,5.20
2022-07-28T23:36:00.626Z,6.07
2022-07-28T23:38:02.891Z,5.05
2022-07-28T23:40:05.154Z,5.40
2022-07-28T23:42:07.259Z,6.65
2022-07-28T23:44:09.330Z,6.30
2022-07-28T23:46:11.311Z,5.95
2022-07-28T23:48:13.167Z,6.30
2022-07-28T23:50:15.093Z,9.02
2022-07-28T23:52:16.804Z,4.82
2022-07-28T23:54:18.990Z,6.60
2022-07-28T23:56:20.838Z,5.32
2022-07-28T23:58:22.657Z,7.32
